createdAt,value
2022-11-24T00:04:49.196Z,69.97
2022-11-24T00:09:51.787Z,70.00
2022-11-24T00:14:54.344Z,69.52
2022-11-24T00:19:56.940Z,69.42
2022-11-24T00:24:59.484Z,70.16
2022-11-24T00:30:02.054Z,70.30
2022-11-24T00:35:07.938Z,70.06
2022-11-24T00:40:10.794Z,70.25
2022-11-24T00:45:14.710Z,70.28
2022-11-24T00:50:17.649Z,70.30
2022-11-24T00:55:20.278Z,70.89
2022-11-24T01:00:23.020Z,70.11
2022-11-24T01:05:25.600Z,70.33
2022-11-24T01:10:28.212Z,70.88
2022-11-24T01:15:30.918Z,70.62
2022-11-24T01:20:33.601Z,70.76
2022-11-24T01:25:40.346Z,70.57
2022-11-24T01:30:43.011Z,70.58
2022-11-24T01:35:45.688Z,69.85
2022-11-24T01:40:48.462Z,69.67
2022-11-24T01:45:51.306Z,69.24
2022-11-24T01:51:00.015Z,69.70
2022-11-24T01:56:03.607Z,70.09
2022-11-24T02:01:06.496Z,69.58
2022-11-24T02:06:14.725Z,70.18
2022-11-24T02:11:17.404Z,69.57
2022-11-24T02:16:20.207Z,69.78
2022-11-24T02:21:25.317Z,70.78
2022-11-24T02:26:33.659Z,70.26
2022-11-24T02:31:36.421Z,70.31
2022-11-24T02:36:38.970Z,71.01
2022-11-24T02:41:50.724Z,70.92
2022-11-24T02:47:11.141Z,70.62
2022-11-24T02:52:13.841Z,71.22
2022-11-24T02:57:16.337Z,71.72
2022-11-24T03:02:18.925Z,71.67
2022-11-24T03:07:21.475Z,72.18
2022-11-24T03:12:24.042Z,72.16
2022-11-24T03:17:26.692Z,71.14
2022-11-24T03:22:29.320Z,71.47
2022-11-24T03:27:32.211Z,71.29
2022-11-24T03:32:34.753Z,71.54
2022-11-24T03:37:37.588Z,71.46
2022-11-24T03:42:41.075Z,70.96
2022-11-24T03:47:43.611Z,70.98
2022-11-24T03:52:51.477Z,70.87
2022-11-24T03:57:53.959Z,70.90
2022-11-24T04:02:56.488Z,70.87
2022-11-24T04:08:03.173Z,71.26
2022-11-24T04:13:12.807Z,70.76
2022-11-24T04:18:15.480Z,71.22
2022-11-24T04:23:20.723Z,70.75
2022-11-24T04:28:23.205Z,70.60
2022-11-24T04:33:25.758Z,70.31
2022-11-24T04:39:24.689Z,70.66
2022-11-24T04:43:51.360Z,70.27
2022-11-24T04:48:53.823Z,70.38
2022-11-24T04:53:56.284Z,70.20
2022-11-24T04:59:00.053Z,70.48
2022-11-24T05:04:04.207Z,70.69
2022-11-24T05:09:08.372Z,70.21
2022-11-24T05:14:10.878Z,69.74
2022-11-24T05:19:13.846Z,70.42
2022-11-24T05:24:16.293Z,70.01
2022-11-24T05:29:18.779Z,70.14
2022-11-24T05:34:21.695Z,70.48
2022-11-24T05:39:24.262Z,70.43
2022-11-24T05:44:26.755Z,71.44
2022-11-24T05:49:29.198Z,70.60
2022-11-24T05:54:31.915Z,70.38
2022-11-24T05:59:35.862Z,70.90
2022-11-24T06:04:38.375Z,70.86
2022-11-24T06:09:42.351Z,71.33
2022-11-24T06:14:45.444Z,71.18
2022-11-24T06:19:50.453Z,70.89
2022-11-24T06:24:52.956Z,70.88
2022-11-24T06:29:55.501Z,71.49
2022-11-24T06:34:58.152Z,71.10
2022-11-24T06:40:09.145Z,71.05
2022-11-24T06:45:11.774Z,70.95
2022-11-24T06:50:14.273Z,71.15
2022-11-24T06:55:16.766Z,71.06
2022-11-24T07:00:19.571Z,71.24
2022-11-24T07:05:22.065Z,70.55
2022-11-24T07:10:24.784Z,70.77
2022-11-24T07:15:29.273Z,70.49
2022-11-24T07:20:31.888Z,70.64
2022-11-24T07:25:34.315Z,70.61
2022-11-24T07:30:36.818Z,69.92
2022-11-24T07:35:39.323Z,70.03
2022-11-24T07:40:41.902Z,70.45
2022-11-24T07:45:44.559Z,70.31
2022-11-24T07:50:49.959Z,69.58
2022-11-24T07:56:00.664Z,69.83
2022-11-24T08:01:29.447Z,69.71
2022-11-24T08:06:39.868Z,70.02
2022-11-24T08:11:45.856Z,69.75
2022-11-24T08:16:48.424Z,68.38
2022-11-24T08:21:51.018Z,69.83
2022-11-24T08:26:53.586Z,69.46
2022-11-24T08:31:59.655Z,69.12
2022-11-24T08:37:04.849Z,69.12
2022-11-24T08:42:07.344Z,68.87
2022-11-24T08:47:09.864Z,68.46
2022-11-24T08:52:12.455Z,67.59
2022-11-24T08:57:20.302Z,68.57
2022-11-24T09:02:24.451Z,68.48
2022-11-24T09:07:27.366Z,67.91
2022-11-24T09:12:29.870Z,68.54
2022-11-24T09:17:33.194Z,68.11
2022-11-24T09:22:42.073Z,67.97
2022-11-24T09:27:44.723Z,67.73
2022-11-24T09:32:47.299Z,68.00
2022-11-24T09:37:49.825Z,68.08
2022-11-24T09:43:06.988Z,67.87
2022-11-24T09:48:23.068Z,67.78
2022-11-24T09:53:49.148Z,67.20
2022-11-24T09:59:17.529Z,67.85
2022-11-24T10:04:34.606Z,67.64
2022-11-24T10:10:06.866Z,68.11
2022-11-24T10:15:22.922Z,67.40
2022-11-24T10:20:34.114Z,66.91
2022-11-24T10:25:57.915Z,67.39
2022-11-24T10:31:20.726Z,68.47
2022-11-24T10:36:43.845Z,68.92
2022-11-24T10:41:52.139Z,68.79
2022-11-24T10:46:54.902Z,67.42
2022-11-24T10:52:14.362Z,68.11
2022-11-24T10:57:32.516Z,67.03
2022-11-24T11:02:40.060Z,67.11
2022-11-24T11:07:42.720Z,68.13
2022-11-24T11:12:45.887Z,67.47
2022-11-24T11:17:50.824Z,67.46
2022-11-24T11:22:56.351Z,68.00
2022-11-24T11:28:26.050Z,67.45
2022-11-24T11:38:54.445Z,66.13
2022-11-24T11:44:15.262Z,66.45
2022-11-24T11:49:17.838Z,67.64
2022-11-24T11:54:28.966Z,67.02
2022-11-24T11:59:49.631Z,67.52
2022-11-24T12:05:06.711Z,67.63
2022-11-24T12:10:39.977Z,67.18
2022-11-24T12:15:48.787Z,66.92
2022-11-24T12:21:26.218Z,67.03
2022-11-24T12:26:38.619Z,67.74
2022-11-24T12:32:00.091Z,67.48
2022-11-24T12:37:26.881Z,67.20
2022-11-24T12:42:55.479Z,67.56
2022-11-24T12:48:29.211Z,67.04
2022-11-24T12:53:34.503Z,66.46
2022-11-24T12:59:06.085Z,67.08
2022-11-24T13:04:35.387Z,67.55
2022-11-24T13:09:38.600Z,67.33
2022-11-24T13:14:50.455Z,67.19
2022-11-24T13:19:52.993Z,68.09
2022-11-24T13:25:29.192Z,68.70
2022-11-24T13:30:34.636Z,67.78
2022-11-24T13:35:37.994Z,67.74
2022-11-24T13:40:54.308Z,67.78
2022-11-24T13:46:05.057Z,67.20
2022-11-24T13:51:16.953Z,67.96
2022-11-24T13:56:19.475Z,67.58
2022-11-24T14:01:32.725Z,67.76
2022-11-24T14:06:52.708Z,67.25
2022-11-24T14:12:12.549Z,67.38
2022-11-24T14:17:28.703Z,67.98
2022-11-24T14:22:41.574Z,68.05
2022-11-24T14:27:44.126Z,67.61
2022-11-24T14:32:57.822Z,67.63
2022-11-24T14:38:06.151Z,67.49
2022-11-24T14:43:22.882Z,67.04
2022-11-24T14:48:28.448Z,66.60
2022-11-24T14:53:30.988Z,67.48
2022-11-24T14:58:40.516Z,67.40
2022-11-24T15:03:44.755Z,67.44
2022-11-24T15:08:49.707Z,67.73
2022-11-24T15:13:55.125Z,67.78
2022-11-24T15:19:03.987Z,67.74
2022-11-24T15:24:19.880Z,67.31
2022-11-24T15:29:22.653Z,67.74
2022-11-24T15:34:54.230Z,68.06
2022-11-24T15:39:56.738Z,67.23
2022-11-24T15:44:59.260Z,67.68
2022-11-24T15:50:01.824Z,67.61
2022-11-24T15:55:06.143Z,67.68
2022-11-24T16:00:15.092Z,68.17
2022-11-24T16:05:18.630Z,68.05
2022-11-24T16:10:31.797Z,67.76
2022-11-24T16:15:34.395Z,67.71
2022-11-24T16:20:37.052Z,67.45
2022-11-24T16:25:39.607Z,67.68
2022-11-24T16:30:42.137Z,67.60
2022-11-24T16:35:48.410Z,68.72
2022-11-24T16:40:56.565Z,68.36
2022-11-24T16:46:23.965Z,68.56
2022-11-24T16:51:31.369Z,69.02
2022-11-24T16:56:36.995Z,69.28
2022-11-24T17:01:40.995Z,68.94
2022-11-24T17:06:43.823Z,68.99
2022-11-24T17:11:46.436Z,68.92
2022-11-24T17:17:05.622Z,69.13
2022-11-24T17:22:08.129Z,69.24
2022-11-24T17:27:10.851Z,69.23
2022-11-24T17:32:13.419Z,69.48
2022-11-24T17:37:16.185Z,70.05
2022-11-24T17:42:18.615Z,69.63
2022-11-24T17:47:21.145Z,69.42
2022-11-24T17:52:24.925Z,69.63
2022-11-24T17:57:27.362Z,70.03
2022-11-24T18:02:29.953Z,69.66
2022-11-24T18:07:32.798Z,69.92
2022-11-24T18:12:35.311Z,69.50
2022-11-24T18:17:37.900Z,69.95
2022-11-24T18:23:04.500Z,69.82
2022-11-24T18:28:02.885Z,69.66
2022-11-24T18:33:05.386Z,69.42
2022-11-24T18:38:08.934Z,69.76
2022-11-24T18:43:11.440Z,69.31
2022-11-24T18:48:15.176Z,69.82
2022-11-24T18:53:18.108Z,70.07
2022-11-24T18:58:20.558Z,69.75
2022-11-24T19:03:23.478Z,69.85
2022-11-24T19:08:25.912Z,69.76
2022-11-24T19:13:28.541Z,70.32
2022-11-24T19:18:31.045Z,70.00
2022-11-24T19:23:33.582Z,70.25
2022-11-24T19:28:36.256Z,70.54
2022-11-24T19:33:42.437Z,70.10
2022-11-24T19:38:50.825Z,70.22
2022-11-24T19:43:55.020Z,70.62
2022-11-24T19:49:00.630Z,70.45
2022-11-24T19:54:04.480Z,70.97
2022-11-24T19:59:07.504Z,70.52
2022-11-24T20:04:13.013Z,70.44
2022-11-24T20:09:18.218Z,70.67
2022-11-24T20:14:20.733Z,70.63
2022-11-24T20:19:23.331Z,70.81
2022-11-24T20:24:25.856Z,71.11
2022-11-24T20:29:29.520Z,71.54
2022-11-24T20:34:32.084Z,72.04
2022-11-24T20:39:34.730Z,71.61
2022-11-24T20:44:37.905Z,71.59
2022-11-24T20:49:40.534Z,71.64
2022-11-24T20:54:46.982Z,71.76
2022-11-24T20:59:50.279Z,71.73
2022-11-24T21:04:52.800Z,71.61
2022-11-24T21:09:55.268Z,71.91
2022-11-24T21:14:57.715Z,71.97
2022-11-24T21:20:01.298Z,71.68
2022-11-24T21:25:05.843Z,72.16
2022-11-24T21:30:09.599Z,71.74
2022-11-24T21:35:12.176Z,71.90
2022-11-24T21:40:15.364Z,71.37
2022-11-24T21:45:18.032Z,71.14
2022-11-24T21:50:20.519Z,71.56
2022-11-24T21:55:23.101Z,71.72
2022-11-24T22:00:25.577Z,71.70
2022-11-24T22:05:28.145Z,72.16
2022-11-24T22:10:30.633Z,71.75
2022-11-24T22:15:33.080Z,72.38
2022-11-24T22:20:36.108Z,71.79
2022-11-24T22:25:38.564Z,71.53
2022-11-24T22:30:41.034Z,71.99
2022-11-24T22:35:43.563Z,71.74
2022-11-24T22:40:46.408Z,71.82
2022-11-24T22:45:49.102Z,71.72
2022-11-24T22:50:51.553Z,71.55
2022-11-24T22:56:12.409Z,71.75
2022-11-24T23:01:23.918Z,71.92
2022-11-24T23:06:31.124Z,71.61
2022-11-24T23:11:41.106Z,71.99
2022-11-24T23:16:44.053Z,71.98
2022-11-24T23:21:46.656Z,71.77
2022-11-24T23:26:49.205Z,72.27
2022-11-24T23:31:52.082Z,71.94
2022-11-24T23:36:54.591Z,72.01
2022-11-24T23:41:57.029Z,71.93
2022-11-24T23:46:59.767Z,72.01
2022-11-24T23:52:02.256Z,72.42
2022-11-24T23:57:04.699Z,72.05
